createdAt,value
2022-11-29T00:00:58.545Z,19.96
2022-11-29T00:03:30.216Z,19.91
2022-11-29T00:06:05.682Z,19.87
2022-11-29T00:08:41.430Z,19.81
2022-11-29T00:11:35.766Z,19.77
2022-11-29T00:14:10.116Z,19.78
2022-11-29T00:16:42.741Z,19.69
2022-11-29T00:19:14.087Z,19.67
2022-11-29T00:21:51.726Z,19.62
2022-11-29T00:24:21.897Z,19.63
2022-11-29T00:26:59.931Z,19.61
2022-11-29T00:29:28.116Z,19.58
2022-11-29T00:31:59.209Z,19.52
2022-11-29T00:34:35.038Z,19.51
2022-11-29T00:37:08.520Z,19.51
2022-11-29T00:39:41.870Z,19.49
2022-11-29T00:42:17.835Z,19.44
2022-11-29T00:44:48.477Z,19.41
2022-11-29T00:47:18.220Z,19.41
2022-11-29T00:49:51.364Z,19.41
2022-11-29T00:52:24.760Z,19.37
2022-11-29T00:55:00.306Z,19.36
2022-11-29T00:57:33.085Z,19.35
2022-11-29T01:00:09.416Z,19.32
2022-11-29T01:02:42.742Z,19.31
2022-11-29T01:05:18.776Z,19.30
2022-11-29T01:07:49.233Z,19.26
2022-11-29T01:10:22.443Z,19.24
2022-11-29T01:12:56.622Z,19.25
2022-11-29T01:15:27.150Z,19.19
2022-11-29T01:17:57.058Z,19.18
2022-11-29T01:20:32.263Z,19.22
2022-11-29T01:23:04.236Z,19.22
2022-11-29T01:25:39.523Z,19.21
2022-11-29T01:28:12.042Z,19.20
2022-11-29T01:30:41.743Z,19.18
2022-11-29T01:33:09.413Z,19.20
2022-11-29T01:35:54.624Z,19.20
2022-11-29T01:38:24.942Z,19.17
2022-11-29T01:41:08.636Z,19.18
2022-11-29T01:44:04.673Z,19.19
2022-11-29T01:46:38.401Z,19.19
2022-11-29T01:49:17.888Z,19.19
2022-11-29T01:52:09.064Z,19.19
2022-11-29T01:54:40.616Z,19.20
2022-11-29T01:57:11.687Z,19.19
2022-11-29T01:59:48.064Z,19.18
2022-11-29T02:02:31.214Z,19.16
2022-11-29T02:05:05.404Z,19.19
2022-11-29T02:07:37.043Z,19.23
2022-11-29T02:10:06.861Z,19.25
2022-11-29T02:12:48.450Z,19.29
2022-11-29T02:15:34.423Z,19.32
2022-11-29T02:18:29.373Z,19.34
2022-11-29T02:21:15.265Z,19.39
2022-11-29T02:23:57.643Z,19.44
2022-11-29T02:26:42.657Z,19.46
2022-11-29T02:29:28.319Z,19.45
2022-11-29T02:32:14.459Z,19.47
2022-11-29T02:35:01.210Z,19.57
2022-11-29T02:38:06.615Z,19.56
2022-11-29T02:40:45.931Z,19.60
2022-11-29T02:43:28.331Z,19.63
2022-11-29T02:46:52.110Z,19.59
2022-11-29T02:49:23.265Z,19.62
2022-11-29T02:52:36.017Z,19.64
2022-11-29T02:55:25.623Z,19.63
2022-11-29T02:58:28.485Z,19.64
2022-11-29T03:01:08.439Z,19.68
2022-11-29T03:03:45.034Z,19.62
2022-11-29T03:06:26.690Z,19.59
2022-11-29T03:09:17.110Z,19.61
2022-11-29T03:12:09.257Z,19.58
2022-11-29T03:15:01.647Z,19.57
2022-11-29T03:17:34.743Z,19.56
2022-11-29T03:20:21.264Z,19.53
2022-11-29T03:23:08.439Z,19.42
2022-11-29T03:26:05.338Z,19.37
2022-11-29T03:28:45.323Z,19.30
2022-11-29T03:31:28.918Z,19.25
2022-11-29T03:34:18.840Z,19.25
2022-11-29T03:36:58.299Z,19.20
2022-11-29T03:39:39.949Z,19.17
2022-11-29T03:42:46.291Z,19.16
2022-11-29T03:45:49.266Z,19.13
2022-11-29T03:48:26.470Z,19.09
2022-11-29T03:51:05.087Z,19.03
2022-11-29T03:54:05.373Z,19.04
2022-11-29T03:56:36.377Z,19.05
2022-11-29T03:59:18.489Z,19.01
2022-11-29T04:02:17.647Z,19.02
2022-11-29T04:05:28.941Z,18.99
2022-11-29T04:08:20.750Z,18.97
2022-11-29T04:11:08.867Z,18.97
2022-11-29T04:13:55.106Z,18.97
2022-11-29T04:17:10.993Z,18.98
2022-11-29T04:20:07.711Z,18.96
2022-11-29T04:22:43.928Z,18.97
2022-11-29T04:25:36.384Z,18.93
2022-11-29T04:28:15.657Z,18.91
2022-11-29T04:31:06.281Z,18.89
2022-11-29T04:33:58.034Z,18.85
2022-11-29T04:36:46.750Z,18.83
2022-11-29T04:39:47.566Z,18.86
2022-11-29T04:42:30.673Z,18.81
2022-11-29T04:45:10.172Z,18.83
2022-11-29T04:47:52.001Z,18.85
2022-11-29T04:50:46.602Z,18.80
2022-11-29T04:53:44.714Z,18.82
2022-11-29T04:56:14.742Z,18.83
2022-11-29T04:59:06.202Z,18.80
2022-11-29T05:02:02.815Z,18.75
2022-11-29T05:04:38.542Z,18.75
2022-11-29T05:07:35.485Z,18.71
2022-11-29T05:10:29.803Z,18.75
2022-11-29T05:13:14.497Z,18.74
2022-11-29T05:15:59.007Z,18.77
2022-11-29T05:18:47.463Z,18.78
2022-11-29T05:21:52.288Z,18.79
2022-11-29T05:25:01.897Z,18.81
2022-11-29T05:27:48.695Z,18.84
2022-11-29T05:30:34.601Z,18.84
2022-11-29T05:33:11.417Z,18.85
2022-11-29T05:36:13.713Z,18.85
2022-11-29T05:39:06.290Z,18.85
2022-11-29T05:41:36.703Z,18.87
2022-11-29T05:44:24.040Z,18.86
2022-11-29T05:47:02.487Z,18.85
2022-11-29T05:50:17.078Z,18.87
2022-11-29T05:53:07.789Z,18.91
2022-11-29T05:55:46.513Z,18.87
2022-11-29T05:58:30.507Z,18.90
2022-11-29T06:01:29.513Z,18.92
2022-11-29T06:04:21.396Z,18.93
2022-11-29T06:07:11.623Z,18.91
2022-11-29T06:09:51.317Z,18.91
2022-11-29T06:12:23.553Z,18.91
2022-11-29T06:15:13.729Z,18.92
2022-11-29T06:18:28.683Z,18.91
2022-11-29T06:21:17.571Z,18.92
2022-11-29T06:24:06.493Z,18.91
2022-11-29T06:26:46.112Z,18.91
2022-11-29T06:29:29.896Z,18.93
2022-11-29T06:32:34.219Z,18.93
2022-11-29T06:35:11.923Z,18.94
2022-11-29T06:37:45.195Z,18.93
2022-11-29T06:40:15.833Z,18.95
2022-11-29T06:42:46.024Z,18.92
2022-11-29T06:45:16.244Z,18.97
2022-11-29T06:48:10.384Z,19.08
2022-11-29T06:50:56.077Z,19.04
2022-11-29T06:53:46.379Z,18.98
2022-11-29T06:56:45.808Z,19.00
2022-11-29T06:59:39.235Z,19.00
2022-11-29T07:02:45.656Z,19.00
2022-11-29T07:05:28.203Z,18.96
2022-11-29T07:07:58.162Z,19.01
2022-11-29T07:10:27.691Z,19.02
2022-11-29T07:12:55.302Z,19.10
2022-11-29T07:15:23.762Z,19.18
2022-11-29T07:18:38.431Z,19.18
2022-11-29T07:21:32.972Z,19.29
2022-11-29T07:24:26.264Z,19.32
2022-11-29T07:27:26.681Z,19.35
2022-11-29T07:30:42.035Z,19.46
2022-11-29T07:33:15.447Z,19.55
2022-11-29T07:35:58.850Z,19.67
2022-11-29T07:38:39.897Z,19.72
2022-11-29T07:41:17.656Z,19.72
2022-11-29T07:44:08.769Z,19.76
2022-11-29T07:46:42.136Z,19.88
2022-11-29T07:49:13.768Z,20.11
2022-11-29T07:51:48.998Z,20.46
2022-11-29T07:54:19.021Z,20.58
2022-11-29T07:56:54.383Z,20.57
2022-11-29T07:59:23.469Z,20.56
2022-11-29T08:01:59.643Z,20.55
2022-11-29T08:04:30.045Z,20.46
2022-11-29T08:07:03.160Z,20.54
2022-11-29T08:09:33.560Z,20.59
2022-11-29T08:12:04.068Z,20.66
2022-11-29T08:14:38.770Z,20.86
2022-11-29T08:17:13.400Z,20.74
2022-11-29T08:19:49.641Z,20.66
2022-11-29T08:22:26.530Z,21.18
2022-11-29T08:25:05.795Z,21.42
2022-11-29T08:27:42.080Z,21.54
2022-11-29T08:30:10.030Z,21.34
2022-11-29T08:32:51.224Z,21.30
2022-11-29T08:35:24.977Z,21.34
2022-11-29T08:38:05.174Z,21.27
2022-11-29T08:40:44.483Z,21.30
2022-11-29T08:43:20.883Z,21.32
2022-11-29T08:46:00.937Z,21.35
2022-11-29T08:48:35.696Z,21.37
2022-11-29T08:51:15.513Z,21.50
2022-11-29T08:53:57.278Z,21.62
2022-11-29T08:57:16.664Z,21.83
2022-11-29T08:59:37.804Z,21.79
2022-11-29T09:02:05.751Z,21.53
2022-11-29T09:04:39.084Z,21.56
2022-11-29T09:07:08.896Z,21.56
2022-11-29T09:09:41.647Z,21.51
2022-11-29T09:12:14.562Z,21.44
2022-11-29T09:14:50.483Z,21.55
2022-11-29T09:17:23.292Z,21.72
2022-11-29T09:19:51.131Z,21.72
2022-11-29T09:22:24.052Z,21.74
2022-11-29T09:24:56.039Z,21.91
2022-11-29T09:27:29.207Z,21.99
2022-11-29T09:29:59.674Z,21.94
2022-11-29T09:32:39.977Z,22.14
2022-11-29T09:35:08.219Z,22.04
2022-11-29T09:37:47.223Z,22.10
2022-11-29T09:40:28.008Z,22.11
2022-11-29T09:43:23.900Z,21.97
2022-11-29T09:46:00.500Z,21.87
2022-11-29T09:48:55.652Z,21.71
2022-11-29T09:51:41.151Z,21.58
2022-11-29T09:54:30.090Z,21.59
2022-11-29T09:57:10.336Z,21.64
2022-11-29T09:59:51.870Z,21.65
2022-11-29T10:02:25.892Z,21.57
2022-11-29T10:05:05.746Z,21.34
2022-11-29T10:07:41.062Z,21.27
2022-11-29T10:10:29.741Z,21.32
2022-11-29T10:13:26.644Z,21.39
2022-11-29T10:16:04.308Z,21.41
2022-11-29T10:18:51.393Z,21.44
2022-11-29T10:21:28.091Z,21.43
2022-11-29T10:24:07.492Z,21.43
2022-11-29T10:26:43.645Z,21.36
2022-11-29T10:29:19.286Z,21.27
2022-11-29T10:31:49.686Z,21.25
2022-11-29T10:34:27.234Z,21.36
2022-11-29T10:37:02.726Z,21.42
2022-11-29T10:39:42.266Z,21.47
2022-11-29T10:42:47.372Z,21.41
2022-11-29T10:45:34.045Z,21.38
2022-11-29T10:48:12.263Z,21.35
2022-11-29T10:50:50.105Z,21.42
2022-11-29T10:53:39.597Z,21.47
2022-11-29T10:56:24.274Z,21.49
2022-11-29T10:59:09.528Z,21.44
2022-11-29T11:01:41.262Z,21.35
2022-11-29T11:04:32.785Z,21.45
2022-11-29T11:07:08.926Z,21.51
2022-11-29T11:09:50.709Z,21.51
2022-11-29T11:12:29.164Z,21.49
2022-11-29T11:15:26.616Z,21.42
2022-11-29T11:18:04.990Z,21.40
2022-11-29T11:20:44.501Z,21.41
2022-11-29T11:23:29.317Z,21.51
2022-11-29T11:25:58.738Z,21.55
2022-11-29T11:28:38.347Z,21.52
2022-11-29T11:31:11.919Z,21.42
2022-11-29T11:33:45.545Z,21.36
2022-11-29T11:36:22.289Z,21.39
2022-11-29T11:39:01.352Z,21.43
2022-11-29T11:41:55.281Z,21.49
2022-11-29T11:44:51.464Z,21.42
2022-11-29T11:47:35.140Z,21.33
2022-11-29T11:50:15.004Z,21.32
2022-11-29T11:52:53.429Z,21.38
2022-11-29T11:55:35.857Z,21.46
2022-11-29T11:58:21.112Z,21.42
2022-11-29T12:01:04.072Z,21.38
2022-11-29T12:03:56.028Z,21.32
2022-11-29T12:06:45.050Z,21.29
2022-11-29T12:09:52.940Z,21.36
2022-11-29T12:12:26.123Z,21.41
2022-11-29T12:15:08.724Z,21.38
2022-11-29T12:18:02.160Z,21.33
2022-11-29T12:20:40.235Z,21.30
2022-11-29T12:23:13.555Z,21.28
2022-11-29T12:25:58.223Z,21.37
2022-11-29T12:28:33.290Z,21.46
2022-11-29T12:31:31.614Z,21.46
2022-11-29T12:34:22.635Z,21.43
2022-11-29T12:37:21.710Z,21.35
2022-11-29T12:40:00.455Z,21.25
2022-11-29T12:43:04.079Z,21.21
2022-11-29T12:45:40.041Z,21.28
2022-11-29T12:48:31.665Z,21.41
2022-11-29T12:51:14.162Z,21.42
2022-11-29T12:54:05.931Z,21.38
2022-11-29T12:56:35.998Z,21.32
2022-11-29T12:59:54.078Z,21.31
2022-11-29T13:02:45.812Z,21.29
2022-11-29T13:05:31.048Z,21.31
2022-11-29T13:08:22.927Z,21.45
2022-11-29T13:11:19.648Z,21.67
2022-11-29T13:14:43.205Z,21.74
2022-11-29T13:17:27.870Z,21.89
2022-11-29T13:20:31.902Z,22.11
2022-11-29T13:23:45.614Z,22.32
2022-11-29T13:26:39.699Z,22.51
2022-11-29T13:29:25.000Z,22.45
2022-11-29T13:32:14.546Z,22.31
2022-11-29T13:34:51.543Z,22.21
2022-11-29T13:37:38.558Z,22.29
2022-11-29T13:40:34.025Z,22.50
2022-11-29T13:43:18.793Z,23.05
2022-11-29T13:46:01.466Z,23.39
2022-11-29T13:48:32.474Z,23.38
2022-11-29T13:51:25.438Z,22.91
2022-11-29T13:54:04.430Z,22.91
2022-11-29T13:56:50.990Z,22.69
2022-11-29T13:59:31.489Z,22.56
2022-11-29T14:02:02.322Z,22.68
2022-11-29T14:04:46.284Z,22.64
2022-11-29T14:07:21.093Z,22.54
2022-11-29T14:10:28.306Z,22.55
2022-11-29T14:13:01.976Z,22.50
2022-11-29T14:15:38.765Z,22.58
2022-11-29T14:18:42.240Z,22.59
2022-11-29T14:21:16.963Z,22.52
2022-11-29T14:23:52.708Z,22.54
2022-11-29T14:26:29.171Z,22.72
2022-11-29T14:29:23.282Z,22.87
2022-11-29T14:31:58.694Z,23.01
2022-11-29T14:34:35.062Z,23.04
2022-11-29T14:37:16.755Z,22.93
2022-11-29T14:39:54.182Z,22.92
2022-11-29T14:42:32.468Z,22.87
2022-11-29T14:45:34.261Z,22.68
2022-11-29T14:48:24.422Z,22.56
2022-11-29T14:51:17.657Z,22.59
2022-11-29T14:53:49.118Z,22.82
2022-11-29T14:56:39.227Z,22.83
2022-11-29T14:59:49.218Z,22.56
2022-11-29T15:02:39.838Z,22.45
2022-11-29T15:05:22.505Z,22.46
2022-11-29T15:08:20.875Z,22.68
2022-11-29T15:10:53.523Z,22.80
2022-11-29T15:13:41.231Z,22.71
2022-11-29T15:16:46.032Z,22.64
2022-11-29T15:19:35.580Z,22.73
2022-11-29T15:22:26.969Z,22.76
2022-11-29T15:25:08.438Z,22.68
2022-11-29T15:27:40.114Z,22.63
2022-11-29T15:30:41.054Z,22.65
2022-11-29T15:33:23.611Z,22.79
2022-11-29T15:36:03.949Z,22.74
2022-11-29T15:38:46.525Z,22.57
2022-11-29T15:41:32.425Z,22.44
2022-11-29T15:44:10.243Z,22.38
2022-11-29T15:46:44.429Z,22.40
2022-11-29T15:49:27.196Z,22.40
2022-11-29T15:52:11.055Z,22.47
2022-11-29T15:54:49.305Z,22.44
2022-11-29T15:57:43.126Z,22.53
2022-11-29T16:00:24.801Z,22.53
2022-11-29T16:03:09.464Z,22.53
2022-11-29T16:05:44.577Z,22.49
2022-11-29T16:08:22.978Z,22.52
2022-11-29T16:10:55.742Z,22.64
2022-11-29T16:13:36.496Z,22.82
2022-11-29T16:16:23.497Z,23.12
2022-11-29T16:18:54.615Z,23.09
2022-11-29T16:21:31.626Z,22.82
2022-11-29T16:24:22.625Z,22.59
2022-11-29T16:27:03.201Z,22.43
2022-11-29T16:29:55.838Z,22.36
2022-11-29T16:32:42.102Z,22.46
2022-11-29T16:35:29.990Z,22.74
2022-11-29T16:38:07.265Z,22.61
2022-11-29T16:40:41.336Z,22.32
2022-11-29T16:43:53.879Z,22.16
2022-11-29T16:46:37.636Z,21.97
2022-11-29T16:49:38.966Z,21.84
2022-11-29T16:52:29.007Z,21.81
2022-11-29T16:55:06.749Z,21.92
2022-11-29T16:57:37.553Z,22.03
2022-11-29T17:00:31.908Z,22.04
2022-11-29T17:03:10.481Z,21.94
2022-11-29T17:05:44.920Z,21.77
2022-11-29T17:08:15.822Z,21.71
2022-11-29T17:10:46.820Z,21.61
2022-11-29T17:13:20.526Z,21.58
2022-11-29T17:16:02.437Z,21.69
2022-11-29T17:18:44.958Z,21.88
2022-11-29T17:21:29.704Z,21.88
2022-11-29T17:24:06.865Z,21.80
2022-11-29T17:26:44.029Z,21.65
2022-11-29T17:29:23.801Z,21.55
2022-11-29T17:32:04.317Z,21.46
2022-11-29T17:34:49.783Z,21.47
2022-11-29T17:37:39.780Z,21.60
2022-11-29T17:40:13.144Z,21.64
2022-11-29T17:42:54.608Z,21.56
2022-11-29T17:45:28.678Z,21.47
2022-11-29T17:48:02.066Z,21.35
2022-11-29T17:50:40.463Z,21.25
2022-11-29T17:53:10.508Z,21.23
2022-11-29T17:55:49.425Z,21.27
2022-11-29T17:58:24.273Z,21.23
2022-11-29T18:01:13.347Z,21.25
2022-11-29T18:03:45.721Z,21.20
2022-11-29T18:06:18.542Z,21.08
2022-11-29T18:08:57.849Z,21.05
2022-11-29T18:11:52.291Z,21.05
2022-11-29T18:14:34.335Z,21.07
2022-11-29T18:17:14.804Z,21.08
2022-11-29T18:19:56.500Z,21.06
2022-11-29T18:22:36.495Z,21.05
2022-11-29T18:25:37.543Z,21.01
2022-11-29T18:28:14.266Z,20.99
2022-11-29T18:30:44.512Z,20.97
2022-11-29T18:33:23.642Z,20.96
2022-11-29T18:36:05.459Z,20.96
2022-11-29T18:38:39.376Z,20.93
2022-11-29T18:41:21.475Z,20.91
2022-11-29T18:44:00.593Z,20.92
2022-11-29T18:46:40.529Z,20.89
2022-11-29T18:49:18.250Z,20.88
2022-11-29T18:51:52.207Z,20.87
2022-11-29T18:54:31.703Z,20.87
2022-11-29T18:57:00.663Z,20.84
2022-11-29T18:59:44.405Z,20.81
2022-11-29T19:02:21.432Z,20.83
2022-11-29T19:04:54.196Z,20.81
2022-11-29T19:07:29.418Z,20.77
2022-11-29T19:10:02.761Z,20.76
2022-11-29T19:12:39.083Z,20.77
2022-11-29T19:15:13.382Z,20.77
2022-11-29T19:17:45.052Z,20.76
2022-11-29T19:20:16.225Z,20.66
2022-11-29T19:23:00.297Z,20.77
2022-11-29T19:25:39.368Z,20.73
2022-11-29T19:28:14.403Z,20.71
2022-11-29T19:30:57.625Z,20.70
2022-11-29T19:33:31.937Z,20.65
2022-11-29T19:36:15.245Z,20.65
2022-11-29T19:38:55.299Z,20.56
2022-11-29T19:41:37.464Z,20.66
2022-11-29T19:44:12.868Z,20.71
2022-11-29T19:46:48.276Z,20.63
2022-11-29T19:49:32.077Z,20.56
2022-11-29T19:52:09.663Z,20.56
2022-11-29T19:54:45.552Z,20.55
2022-11-29T19:57:16.599Z,20.54
2022-11-29T20:02:26.062Z,20.48
2022-11-29T20:05:02.311Z,20.47
2022-11-29T20:07:37.414Z,20.46
2022-11-29T20:10:13.980Z,20.46
2022-11-29T20:12:52.848Z,20.48
2022-11-29T20:15:29.182Z,20.41
2022-11-29T20:18:08.212Z,20.41
2022-11-29T20:20:47.120Z,20.40
2022-11-29T20:23:25.878Z,20.42
2022-11-29T20:25:56.945Z,20.41
2022-11-29T20:28:38.781Z,20.43
2022-11-29T20:31:21.216Z,20.43
2022-11-29T20:34:00.963Z,20.40
2022-11-29T20:37:07.568Z,20.40
2022-11-29T20:39:50.179Z,20.39
2022-11-29T20:42:39.476Z,20.37
2022-11-29T20:45:16.398Z,20.37
2022-11-29T20:48:02.585Z,20.36
2022-11-29T20:50:39.158Z,20.37
2022-11-29T20:53:36.138Z,20.31
2022-11-29T20:56:05.596Z,20.30
2022-11-29T20:58:42.233Z,20.23
2022-11-29T21:01:18.262Z,20.16
2022-11-29T21:03:57.036Z,20.15
2022-11-29T21:06:27.301Z,20.17
2022-11-29T21:09:03.313Z,20.17
2022-11-29T21:11:39.459Z,20.14
2022-11-29T21:14:10.733Z,20.13
2022-11-29T21:16:48.807Z,20.10
2022-11-29T21:19:28.700Z,20.09
2022-11-29T21:22:29.528Z,20.08
2022-11-29T21:25:15.073Z,20.05
2022-11-29T21:27:48.701Z,20.06
2022-11-29T21:30:26.604Z,20.03
2022-11-29T21:33:06.659Z,20.03
2022-11-29T21:35:48.966Z,20.02
2022-11-29T21:38:23.139Z,20.04
2022-11-29T21:41:03.840Z,20.08
2022-11-29T21:44:05.439Z,20.07
2022-11-29T21:46:45.696Z,20.08
2022-11-29T21:49:29.683Z,20.03
2022-11-29T21:52:05.165Z,20.08
2022-11-29T21:54:41.094Z,20.06
2022-11-29T21:57:22.144Z,20.04
2022-11-29T22:00:03.937Z,20.04
2022-11-29T22:02:37.413Z,19.99
2022-11-29T22:05:18.584Z,20.03
2022-11-29T22:07:58.199Z,19.99
2022-11-29T22:10:32.811Z,19.96
2022-11-29T22:13:14.448Z,19.95
2022-11-29T22:15:50.821Z,19.92
2022-11-29T22:18:27.867Z,19.94
2022-11-29T22:21:07.105Z,19.95
2022-11-29T22:23:45.332Z,19.94
2022-11-29T22:26:18.899Z,19.88
2022-11-29T22:28:59.627Z,19.87
2022-11-29T22:31:37.308Z,19.88
2022-11-29T22:34:09.050Z,19.84
2022-11-29T22:36:40.731Z,19.84
2022-11-29T22:39:14.725Z,19.82
2022-11-29T22:41:55.068Z,19.82
2022-11-29T22:44:39.866Z,19.80
2022-11-29T22:47:15.721Z,19.76
2022-11-29T22:49:51.986Z,19.75
2022-11-29T22:52:26.988Z,19.76
2022-11-29T22:55:08.641Z,19.73
2022-11-29T22:57:43.724Z,19.68
2022-11-29T23:00:17.877Z,19.67
2022-11-29T23:03:00.535Z,19.66
2022-11-29T23:05:38.750Z,19.66
2022-11-29T23:08:11.544Z,19.63
2022-11-29T23:10:47.558Z,19.61
2022-11-29T23:13:23.429Z,19.63
2022-11-29T23:16:05.890Z,19.63
2022-11-29T23:18:42.257Z,19.61
2022-11-29T23:21:37.111Z,19.60
2022-11-29T23:24:12.896Z,19.58
2022-11-29T23:26:49.905Z,19.59
2022-11-29T23:29:28.713Z,19.59
2022-11-29T23:32:00.758Z,19.57
2022-11-29T23:34:40.197Z,19.59
2022-11-29T23:37:10.682Z,19.56
2022-11-29T23:39:53.211Z,19.53
2022-11-29T23:42:31.388Z,19.53
2022-11-29T23:45:07.343Z,19.52
2022-11-29T23:47:42.979Z,19.51
2022-11-29T23:50:21.987Z,19.51
2022-11-29T23:52:59.479Z,19.51
2022-11-29T23:55:39.917Z,19.51
2022-11-29T23:58:12.964Z,19.52
